sensor_id;sensor_type;location;lat;lon;timestamp;temperature;humidity
7502;DHT22;3792;47.740;7.606;2022-10-16T00:01:06;15.30;99.90
7502;DHT22;3792;47.740;7.606;2022-10-16T00:03:33;15.40;99.90
7502;DHT22;3792;47.740;7.606;2022-10-16T00:06:01;15.40;99.90
7502;DHT22;3792;47.740;7.606;2022-10-16T00:08:28;15.40;99.90
7502;DHT22;3792;47.740;7.606;2022-10-16T00:11:00;15.40;99.90
7502;DHT22;3792;47.740;7.606;2022-10-16T00:13:27;15.40;99.90
7502;DHT22;3792;47.740;7.606;2022-10-16T00:15:57;15.50;99.90
7502;DHT22;3792;47.740;7.606;2022-10-16T00:18:25;15.50;99.90
7502;DHT22;3792;47.740;7.606;2022-10-16T00:20:52;15.40;99.90
7502;DHT22;3792;47.740;7.606;2022-10-16T00:23:20;15.40;99.90
7502;DHT22;3792;47.740;7.606;2022-10-16T00:25:54;15.30;99.90
7502;DHT22;3792;47.740;7.606;2022-10-16T00:28:22;15.20;99.90
7502;DHT22;3792;47.740;7.606;2022-10-16T00:30:49;15.10;99.90
7502;DHT22;3792;47.740;7.606;2022-10-16T00:33:18;15.10;99.90
7502;DHT22;3792;47.740;7.606;2022-10-16T00:35:45;15.10;99.90
7502;DHT22;3792;47.740;7.606;2022-10-16T00:38:12;15.10;99.90
7502;DHT22;3792;47.740;7.606;2022-10-16T00:40:40;15.10;99.90
7502;DHT22;3792;47.740;7.606;2022-10-16T00:43:12;15.10;99.90
7502;DHT22;3792;47.740;7.606;2022-10-16T00:45:40;15.10;99.90
7502;DHT22;3792;47.740;7.606;2022-10-16T00:48:11;15.20;99.90
7502;DHT22;3792;47.740;7.606;2022-10-16T00:50:41;15.20;99.90
7502;DHT22;3792;47.740;7.606;2022-10-16T00:53:10;15.20;99.90
7502;DHT22;3792;47.740;7.606;2022-10-16T00:55:37;15.30;99.90
7502;DHT22;3792;47.740;7.606;2022-10-16T00:58:05;15.30;99.90
7502;DHT22;3792;47.740;7.606;2022-10-16T01:00:32;15.30;99.90
7502;DHT22;3792;47.740;7.606;2022-10-16T01:03:00;15.30;99.90
7502;DHT22;3792;47.740;7.606;2022-10-16T01:05:48;15.30;99.90
7502;DHT22;3792;47.740;7.606;2022-10-16T01:08:24;15.30;99.90
7502;DHT22;3792;47.740;7.606;2022-10-16T01:10:59;15.30;99.90
7502;DHT22;3792;47.740;7.606;2022-10-16T01:13:33;15.20;99.90
7502;DHT22;3792;47.740;7.606;2022-10-16T01:16:06;15.20;99.90
7502;DHT22;3792;47.740;7.606;2022-10-16T01:18:39;15.10;99.90
7502;DHT22;3792;47.740;7.606;2022-10-16T01:21:15;15.10;99.90
7502;DHT22;3792;47.740;7.606;2022-10-16T01:23:51;15.10;99.90
7502;DHT22;3792;47.740;7.606;2022-10-16T01:26:50;15.10;99.90
7502;DHT22;3792;47.740;7.606;2022-10-16T01:29:23;15.10;99.90
7502;DHT22;3792;47.740;7.606;2022-10-16T01:31:56;15.10;99.90
7502;DHT22;3792;47.740;7.606;2022-10-16T01:34:31;15.10;99.90
7502;DHT22;3792;47.740;7.606;2022-10-16T01:37:04;15.10;99.90
7502;DHT22;3792;47.740;7.606;2022-10-16T01:39:34;15.00;99.90
7502;DHT22;3792;47.740;7.606;2022-10-16T01:42:05;15.00;99.90
7502;DHT22;3792;47.740;7.606;2022-10-16T01:44:37;15.00;99.90
7502;DHT22;3792;47.740;7.606;2022-10-16T01:47:07;14.90;99.90
7502;DHT22;3792;47.740;7.606;2022-10-16T01:49:37;14.80;99.90
7502;DHT22;3792;47.740;7.606;2022-10-16T01:52:07;14.80;99.90
7502;DHT22;3792;47.740;7.606;2022-10-16T01:54:37;14.90;99.90
7502;DHT22;3792;47.740;7.606;2022-10-16T01:57:07;14.90;99.90
7502;DHT22;3792;47.740;7.606;2022-10-16T01:59:39;14.90;99.90
7502;DHT22;3792;47.740;7.606;2022-10-16T02:02:09;14.90;99.90
7502;DHT22;3792;47.740;7.606;2022-10-16T02:04:42;14.80;99.90
7502;DHT22;3792;47.740;7.606;2022-10-16T02:07:09;14.80;99.90
7502;DHT22;3792;47.740;7.606;2022-10-16T02:09:37;14.80;99.90
7502;DHT22;3792;47.740;7.606;2022-10-16T02:12:10;14.80;99.90
7502;DHT22;3792;47.740;7.606;2022-10-16T02:14:40;14.80;99.90
7502;DHT22;3792;47.740;7.606;2022-10-16T02:17:12;14.80;99.90
7502;DHT22;3792;47.740;7.606;2022-10-16T02:19:39;14.80;99.90
7502;DHT22;3792;47.740;7.606;2022-10-16T02:22:10;14.80;99.90
7502;DHT22;3792;47.740;7.606;2022-10-16T02:24:45;14.80;99.90
7502;DHT22;3792;47.740;7.606;2022-10-16T02:27:19;14.90;99.90
7502;DHT22;3792;47.740;7.606;2022-10-16T02:29:54;14.80;99.90
7502;DHT22;3792;47.740;7.606;2022-10-16T02:32:27;14.80;99.90
7502;DHT22;3792;47.740;7.606;2022-10-16T02:34:56;14.80;99.90
7502;DHT22;3792;47.740;7.606;2022-10-16T02:37:25;14.80;99.90
7502;DHT22;3792;47.740;7.606;2022-10-16T02:39:52;14.80;99.90
7502;DHT22;3792;47.740;7.606;2022-10-16T02:42:20;14.80;99.90
7502;DHT22;3792;47.740;7.606;2022-10-16T02:44:47;14.80;99.90
7502;DHT22;3792;47.740;7.606;2022-10-16T02:47:16;14.80;99.90
7502;DHT22;3792;47.740;7.606;2022-10-16T02:49:43;14.70;99.90
7502;DHT22;3792;47.740;7.606;2022-10-16T02:52:10;14.70;99.90
7502;DHT22;3792;47.740;7.606;2022-10-16T02:54:37;14.70;99.90
7502;DHT22;3792;47.740;7.606;2022-10-16T02:57:04;14.70;99.90
7502;DHT22;3792;47.740;7.606;2022-10-16T02:59:31;14.70;99.90
7502;DHT22;3792;47.740;7.606;2022-10-16T03:01:58;14.70;99.90
7502;DHT22;3792;47.740;7.606;2022-10-16T03:04:26;14.70;99.90
7502;DHT22;3792;47.740;7.606;2022-10-16T03:06:54;14.60;99.90
7502;DHT22;3792;47.740;7.606;2022-10-16T03:09:21;14.60;99.90
7502;DHT22;3792;47.740;7.606;2022-10-16T03:11:48;14.60;99.90
7502;DHT22;3792;47.740;7.606;2022-10-16T03:14:15;14.70;99.90
7502;DHT22;3792;47.740;7.606;2022-10-16T03:16:42;14.80;99.90
7502;DHT22;3792;47.740;7.606;2022-10-16T03:19:09;14.90;99.90
7502;DHT22;3792;47.740;7.606;2022-10-16T03:21:37;15.00;99.90
7502;DHT22;3792;47.740;7.606;2022-10-16T03:24:05;15.10;99.90
7502;DHT22;3792;47.740;7.606;2022-10-16T03:26:32;15.10;99.90
7502;DHT22;3792;47.740;7.606;2022-10-16T03:28:59;15.10;99.90
7502;DHT22;3792;47.740;7.606;2022-10-16T03:31:28;15.10;99.90
7502;DHT22;3792;47.740;7.606;2022-10-16T03:33:55;15.10;99.90
7502;DHT22;3792;47.740;7.606;2022-10-16T03:36:22;15.10;99.90
7502;DHT22;3792;47.740;7.606;2022-10-16T03:38:50;15.10;99.90
7502;DHT22;3792;47.740;7.606;2022-10-16T03:41:17;15.10;99.90
7502;DHT22;3792;47.740;7.606;2022-10-16T03:43:45;15.10;99.90
7502;DHT22;3792;47.740;7.606;2022-10-16T03:46:12;15.10;99.90
7502;DHT22;3792;47.740;7.606;2022-10-16T03:48:39;15.00;99.90
7502;DHT22;3792;47.740;7.606;2022-10-16T03:51:06;14.90;99.90
7502;DHT22;3792;47.740;7.606;2022-10-16T03:53:33;14.90;99.90
7502;DHT22;3792;47.740;7.606;2022-10-16T03:56:02;14.90;99.90
7502;DHT22;3792;47.740;7.606;2022-10-16T03:58:29;14.90;99.90
7502;DHT22;3792;47.740;7.606;2022-10-16T04:00:56;14.90;99.90
7502;DHT22;3792;47.740;7.606;2022-10-16T04:03:23;14.90;99.90
7502;DHT22;3792;47.740;7.606;2022-10-16T04:05:50;14.90;99.90
7502;DHT22;3792;47.740;7.606;2022-10-16T04:08:17;14.90;99.90
7502;DHT22;3792;47.740;7.606;2022-10-16T04:10:45;14.90;99.90
7502;DHT22;3792;47.740;7.606;2022-10-16T04:13:13;14.90;99.90
7502;DHT22;3792;47.740;7.606;2022-10-16T04:15:41;14.90;99.90
7502;DHT22;3792;47.740;7.606;2022-10-16T04:18:08;14.90;99.90
7502;DHT22;3792;47.740;7.606;2022-10-16T04:20:35;14.90;99.90
7502;DHT22;3792;47.740;7.606;2022-10-16T04:23:02;14.90;99.90
7502;DHT22;3792;47.740;7.606;2022-10-16T04:25:29;14.80;99.90
7502;DHT22;3792;47.740;7.606;2022-10-16T04:27:57;14.80;99.90
7502;DHT22;3792;47.740;7.606;2022-10-16T04:30:25;14.90;99.90
7502;DHT22;3792;47.740;7.606;2022-10-16T04:32:53;14.90;99.90
7502;DHT22;3792;47.740;7.606;2022-10-16T04:35:21;14.80;99.90
7502;DHT22;3792;47.740;7.606;2022-10-16T04:37:49;14.80;99.90
7502;DHT22;3792;47.740;7.606;2022-10-16T04:40:16;14.80;99.90
7502;DHT22;3792;47.740;7.606;2022-10-16T04:42:43;14.80;99.90
7502;DHT22;3792;47.740;7.606;2022-10-16T04:45:10;14.80;99.90
7502;DHT22;3792;47.740;7.606;2022-10-16T04:47:39;14.70;99.90
7502;DHT22;3792;47.740;7.606;2022-10-16T04:50:07;14.70;99.90
7502;DHT22;3792;47.740;7.606;2022-10-16T04:52:34;14.70;99.90
7502;DHT22;3792;47.740;7.606;2022-10-16T04:55:01;14.70;99.90
7502;DHT22;3792;47.740;7.606;2022-10-16T04:57:29;14.70;99.90
7502;DHT22;3792;47.740;7.606;2022-10-16T04:59:56;14.70;99.90
7502;DHT22;3792;47.740;7.606;2022-10-16T05:02:23;14.70;99.90
7502;DHT22;3792;47.740;7.606;2022-10-16T05:04:52;14.60;99.90
7502;DHT22;3792;47.740;7.606;2022-10-16T05:07:19;14.60;99.90
7502;DHT22;3792;47.740;7.606;2022-10-16T05:09:46;14.50;99.90
7502;DHT22;3792;47.740;7.606;2022-10-16T05:12:13;14.50;99.90
7502;DHT22;3792;47.740;7.606;2022-10-16T05:14:40;14.60;99.90
7502;DHT22;3792;47.740;7.606;2022-10-16T05:17:07;14.60;99.90
7502;DHT22;3792;47.740;7.606;2022-10-16T05:19:34;14.60;99.90
7502;DHT22;3792;47.740;7.606;2022-10-16T05:22:03;14.60;99.90
7502;DHT22;3792;47.740;7.606;2022-10-16T05:24:30;14.60;99.90
7502;DHT22;3792;47.740;7.606;2022-10-16T05:26:57;14.60;99.90
7502;DHT22;3792;47.740;7.606;2022-10-16T05:29:24;14.60;99.90
7502;DHT22;3792;47.740;7.606;2022-10-16T05:31:52;14.60;99.90
7502;DHT22;3792;47.740;7.606;2022-10-16T05:34:19;14.60;99.90
7502;DHT22;3792;47.740;7.606;2022-10-16T05:36:46;14.50;99.90
7502;DHT22;3792;47.740;7.606;2022-10-16T05:39:15;14.50;99.90
7502;DHT22;3792;47.740;7.606;2022-10-16T05:41:43;14.50;99.90
7502;DHT22;3792;47.740;7.606;2022-10-16T05:44:10;14.50;99.90
7502;DHT22;3792;47.740;7.606;2022-10-16T05:46:37;14.50;99.90
7502;DHT22;3792;47.740;7.606;2022-10-16T05:49:04;14.50;99.90
7502;DHT22;3792;47.740;7.606;2022-10-16T05:51:32;14.50;99.90
7502;DHT22;3792;47.740;7.606;2022-10-16T05:53:59;14.50;99.90
7502;DHT22;3792;47.740;7.606;2022-10-16T05:56:27;14.50;99.90
7502;DHT22;3792;47.740;7.606;2022-10-16T05:58:54;14.50;99.90
7502;DHT22;3792;47.740;7.606;2022-10-16T06:01:21;14.60;99.90
7502;DHT22;3792;47.740;7.606;2022-10-16T06:03:49;14.60;99.90
7502;DHT22;3792;47.740;7.606;2022-10-16T06:06:18;14.60;99.90
7502;DHT22;3792;47.740;7.606;2022-10-16T06:08:47;14.60;99.90
7502;DHT22;3792;47.740;7.606;2022-10-16T06:11:17;14.60;99.90
7502;DHT22;3792;47.740;7.606;2022-10-16T06:13:49;14.60;99.90
7502;DHT22;3792;47.740;7.606;2022-10-16T06:16:17;14.70;99.90
7502;DHT22;3792;47.740;7.606;2022-10-16T06:18:44;14.60;99.90
7502;DHT22;3792;47.740;7.606;2022-10-16T06:21:13;14.60;99.90
7502;DHT22;3792;47.740;7.606;2022-10-16T06:23:41;14.60;99.90
7502;DHT22;3792;47.740;7.606;2022-10-16T06:26:10;14.60;99.90
7502;DHT22;3792;47.740;7.606;2022-10-16T06:28:38;14.60;99.90
7502;DHT22;3792;47.740;7.606;2022-10-16T06:31:08;14.60;99.90
7502;DHT22;3792;47.740;7.606;2022-10-16T06:33:36;14.60;99.90
7502;DHT22;3792;47.740;7.606;2022-10-16T06:36:05;14.60;99.90
7502;DHT22;3792;47.740;7.606;2022-10-16T06:38:34;14.60;99.90
7502;DHT22;3792;47.740;7.606;2022-10-16T06:41:01;14.70;99.90
7502;DHT22;3792;47.740;7.606;2022-10-16T06:43:29;14.70;99.90
7502;DHT22;3792;47.740;7.606;2022-10-16T06:45:59;14.70;99.90
7502;DHT22;3792;47.740;7.606;2022-10-16T06:48:29;14.80;99.90
7502;DHT22;3792;47.740;7.606;2022-10-16T06:50:57;14.80;99.90
7502;DHT22;3792;47.740;7.606;2022-10-16T06:53:24;14.80;99.90
7502;DHT22;3792;47.740;7.606;2022-10-16T06:55:52;14.90;99.90
7502;DHT22;3792;47.740;7.606;2022-10-16T06:58:19;15.00;99.90
7502;DHT22;3792;47.740;7.606;2022-10-16T07:00:47;15.00;99.90
7502;DHT22;3792;47.740;7.606;2022-10-16T07:03:14;15.10;99.90
7502;DHT22;3792;47.740;7.606;2022-10-16T07:05:43;15.20;99.90
7502;DHT22;3792;47.740;7.606;2022-10-16T07:08:10;15.30;99.90
7502;DHT22;3792;47.740;7.606;2022-10-16T07:10:37;15.40;99.90
7502;DHT22;3792;47.740;7.606;2022-10-16T07:13:04;15.50;99.90
7502;DHT22;3792;47.740;7.606;2022-10-16T07:15:33;15.60;99.90
7502;DHT22;3792;47.740;7.606;2022-10-16T07:18:00;15.70;99.90
7502;DHT22;3792;47.740;7.606;2022-10-16T07:20:27;15.80;99.90
7502;DHT22;3792;47.740;7.606;2022-10-16T07:22:56;15.80;99.90
7502;DHT22;3792;47.740;7.606;2022-10-16T07:25:23;15.90;99.90
7502;DHT22;3792;47.740;7.606;2022-10-16T07:27:50;16.00;99.90
7502;DHT22;3792;47.740;7.606;2022-10-16T07:30:17;16.00;99.90
7502;DHT22;3792;47.740;7.606;2022-10-16T07:32:45;16.10;99.90
7502;DHT22;3792;47.740;7.606;2022-10-16T07:35:12;16.20;99.90
7502;DHT22;3792;47.740;7.606;2022-10-16T07:37:39;16.30;99.90
7502;DHT22;3792;47.740;7.606;2022-10-16T07:40:09;16.40;99.90
7502;DHT22;3792;47.740;7.606;2022-10-16T07:42:36;16.60;99.90
7502;DHT22;3792;47.740;7.606;2022-10-16T07:45:04;16.80;99.90
7502;DHT22;3792;47.740;7.606;2022-10-16T07:47:31;16.90;99.90
7502;DHT22;3792;47.740;7.606;2022-10-16T07:49:58;17.10;99.90
7502;DHT22;3792;47.740;7.606;2022-10-16T07:52:25;17.50;99.90
7502;DHT22;3792;47.740;7.606;2022-10-16T07:54:52;17.60;99.90
7502;DHT22;3792;47.740;7.606;2022-10-16T07:57:21;17.60;99.90
7502;DHT22;3792;47.740;7.606;2022-10-16T07:59:48;17.60;99.90
7502;DHT22;3792;47.740;7.606;2022-10-16T08:02:15;17.50;99.90
7502;DHT22;3792;47.740;7.606;2022-10-16T08:04:42;17.50;99.90
7502;DHT22;3792;47.740;7.606;2022-10-16T08:07:09;17.40;99.90
7502;DHT22;3792;47.740;7.606;2022-10-16T08:09:36;17.40;99.90
7502;DHT22;3792;47.740;7.606;2022-10-16T08:12:04;17.50;99.90
7502;DHT22;3792;47.740;7.606;2022-10-16T08:14:32;17.80;99.90
7502;DHT22;3792;47.740;7.606;2022-10-16T08:16:59;18.10;99.90
7502;DHT22;3792;47.740;7.606;2022-10-16T08:19:27;18.50;99.90
7502;DHT22;3792;47.740;7.606;2022-10-16T08:21:55;18.90;99.90
7502;DHT22;3792;47.740;7.606;2022-10-16T08:24:22;19.30;99.90
7502;DHT22;3792;47.740;7.606;2022-10-16T08:26:49;19.40;99.90
7502;DHT22;3792;47.740;7.606;2022-10-16T08:29:17;19.30;99.90
7502;DHT22;3792;47.740;7.606;2022-10-16T08:31:45;19.50;99.90
7502;DHT22;3792;47.740;7.606;2022-10-16T08:34:12;19.60;99.90
7502;DHT22;3792;47.740;7.606;2022-10-16T08:36:39;19.80;99.90
7502;DHT22;3792;47.740;7.606;2022-10-16T08:39:06;19.80;99.90
7502;DHT22;3792;47.740;7.606;2022-10-16T08:41:57;20.00;99.90
7502;DHT22;3792;47.740;7.606;2022-10-16T08:44:44;20.30;99.90
7502;DHT22;3792;47.740;7.606;2022-10-16T08:47:21;20.60;99.90
7502;DHT22;3792;47.740;7.606;2022-10-16T08:49:56;20.60;99.90
7502;DHT22;3792;47.740;7.606;2022-10-16T08:52:28;20.40;99.90
7502;DHT22;3792;47.740;7.606;2022-10-16T08:54:56;20.40;99.90
7502;DHT22;3792;47.740;7.606;2022-10-16T08:57:25;20.60;99.90
7502;DHT22;3792;47.740;7.606;2022-10-16T08:59:52;20.90;99.90
7502;DHT22;3792;47.740;7.606;2022-10-16T09:02:28;21.30;99.90
7502;DHT22;3792;47.740;7.606;2022-10-16T09:05:08;21.60;99.90
7502;DHT22;3792;47.740;7.606;2022-10-16T09:07:43;21.90;99.90
7502;DHT22;3792;47.740;7.606;2022-10-16T09:10:21;22.30;99.90
7502;DHT22;3792;47.740;7.606;2022-10-16T09:12:58;22.60;99.90
7502;DHT22;3792;47.740;7.606;2022-10-16T09:15:34;22.60;99.90
7502;DHT22;3792;47.740;7.606;2022-10-16T09:18:09;22.40;99.90
7502;DHT22;3792;47.740;7.606;2022-10-16T09:20:45;22.40;99.90
7502;DHT22;3792;47.740;7.606;2022-10-16T09:23:16;22.60;99.90
7502;DHT22;3792;47.740;7.606;2022-10-16T09:25:45;22.60;99.90
7502;DHT22;3792;47.740;7.606;2022-10-16T09:28:15;22.50;99.90
7502;DHT22;3792;47.740;7.606;2022-10-16T09:30:43;22.30;99.90
7502;DHT22;3792;47.740;7.606;2022-10-16T09:33:12;22.20;99.90
7502;DHT22;3792;47.740;7.606;2022-10-16T09:35:42;22.10;99.90
7502;DHT22;3792;47.740;7.606;2022-10-16T09:38:22;22.00;99.90
7502;DHT22;3792;47.740;7.606;2022-10-16T09:40:50;21.90;99.90
7502;DHT22;3792;47.740;7.606;2022-10-16T09:43:22;21.80;99.90
7502;DHT22;3792;47.740;7.606;2022-10-16T09:45:55;21.80;99.90
7502;DHT22;3792;47.740;7.606;2022-10-16T09:48:26;21.70;99.90
7502;DHT22;3792;47.740;7.606;2022-10-16T09:50:59;21.70;99.90
7502;DHT22;3792;47.740;7.606;2022-10-16T09:53:39;21.70;99.90
7502;DHT22;3792;47.740;7.606;2022-10-16T09:56:06;21.80;99.90
7502;DHT22;3792;47.740;7.606;2022-10-16T09:58:34;21.80;99.90
7502;DHT22;3792;47.740;7.606;2022-10-16T10:01:02;21.90;99.90
7502;DHT22;3792;47.740;7.606;2022-10-16T10:03:40;21.90;99.90
7502;DHT22;3792;47.740;7.606;2022-10-16T10:06:18;22.00;99.90
7502;DHT22;3792;47.740;7.606;2022-10-16T10:09:00;22.50;99.90
7502;DHT22;3792;47.740;7.606;2022-10-16T10:11:39;23.20;99.90
7502;DHT22;3792;47.740;7.606;2022-10-16T10:14:23;23.70;99.90
7502;DHT22;3792;47.740;7.606;2022-10-16T10:16:51;24.00;99.90
7502;DHT22;3792;47.740;7.606;2022-10-16T10:19:22;23.90;99.90
7502;DHT22;3792;47.740;7.606;2022-10-16T10:21:50;23.90;99.90
7502;DHT22;3792;47.740;7.606;2022-10-16T10:24:19;24.00;99.90
7502;DHT22;3792;47.740;7.606;2022-10-16T10:26:51;24.30;99.90
7502;DHT22;3792;47.740;7.606;2022-10-16T10:29:28;24.60;99.90
7502;DHT22;3792;47.740;7.606;2022-10-16T10:32:04;24.90;99.90
7502;DHT22;3792;47.740;7.606;2022-10-16T10:34:52;25.20;99.90
7502;DHT22;3792;47.740;7.606;2022-10-16T10:37:38;25.30;99.90
7502;DHT22;3792;47.740;7.606;2022-10-16T10:40:15;25.60;99.90
7502;DHT22;3792;47.740;7.606;2022-10-16T10:42:49;25.90;99.90
7502;DHT22;3792;47.740;7.606;2022-10-16T10:45:25;26.10;99.90
7502;DHT22;3792;47.740;7.606;2022-10-16T10:48:12;26.00;99.90
7502;DHT22;3792;47.740;7.606;2022-10-16T10:50:47;26.20;99.90
7502;DHT22;3792;47.740;7.606;2022-10-16T10:53:28;26.20;99.90
7502;DHT22;3792;47.740;7.606;2022-10-16T10:56:04;26.20;99.90
7502;DHT22;3792;47.740;7.606;2022-10-16T10:58:58;26.20;99.90
7502;DHT22;3792;47.740;7.606;2022-10-16T11:01:35;26.30;99.90
7502;DHT22;3792;47.740;7.606;2022-10-16T11:04:31;26.20;99.90
7502;DHT22;3792;47.740;7.606;2022-10-16T11:07:04;26.40;99.90
7502;DHT22;3792;47.740;7.606;2022-10-16T11:12:17;26.50;99.90
7502;DHT22;3792;47.740;7.606;2022-10-16T11:14:49;26.30;99.90
7502;DHT22;3792;47.740;7.606;2022-10-16T11:17:23;26.00;99.90
7502;DHT22;3792;47.740;7.606;2022-10-16T11:19:55;25.70;99.90
7502;DHT22;3792;47.740;7.606;2022-10-16T11:22:29;25.40;99.90
7502;DHT22;3792;47.740;7.606;2022-10-16T11:25:04;25.10;99.90
7502;DHT22;3792;47.740;7.606;2022-10-16T11:27:37;25.00;99.90
7502;DHT22;3792;47.740;7.606;2022-10-16T11:30:14;24.90;99.90
7502;DHT22;3792;47.740;7.606;2022-10-16T11:32:52;24.90;99.90
7502;DHT22;3792;47.740;7.606;2022-10-16T11:35:24;24.90;99.90
7502;DHT22;3792;47.740;7.606;2022-10-16T11:37:55;24.80;99.90
7502;DHT22;3792;47.740;7.606;2022-10-16T11:40:27;24.80;99.90
7502;DHT22;3792;47.740;7.606;2022-10-16T11:42:59;24.80;99.90
7502;DHT22;3792;47.740;7.606;2022-10-16T11:45:33;24.70;99.90
7502;DHT22;3792;47.740;7.606;2022-10-16T11:48:07;24.70;99.90
7502;DHT22;3792;47.740;7.606;2022-10-16T11:50:40;24.80;99.90
7502;DHT22;3792;47.740;7.606;2022-10-16T11:53:18;25.20;99.90
7502;DHT22;3792;47.740;7.606;2022-10-16T11:55:49;25.60;99.90
7502;DHT22;3792;47.740;7.606;2022-10-16T11:58:24;25.80;99.90
7502;DHT22;3792;47.740;7.606;2022-10-16T12:00:58;26.00;99.90
7502;DHT22;3792;47.740;7.606;2022-10-16T12:03:29;26.30;99.90
7502;DHT22;3792;47.740;7.606;2022-10-16T12:06:25;26.70;99.90
7502;DHT22;3792;47.740;7.606;2022-10-16T12:08:54;26.90;99.90
7502;DHT22;3792;47.740;7.606;2022-10-16T12:11:31;27.10;99.90
7502;DHT22;3792;47.740;7.606;2022-10-16T12:14:07;27.00;99.90
7502;DHT22;3792;47.740;7.606;2022-10-16T12:16:51;27.10;99.90
7502;DHT22;3792;47.740;7.606;2022-10-16T12:19:20;26.90;99.90
7502;DHT22;3792;47.740;7.606;2022-10-16T12:21:56;26.90;99.90
7502;DHT22;3792;47.740;7.606;2022-10-16T12:24:42;27.10;99.90
7502;DHT22;3792;47.740;7.606;2022-10-16T12:27:24;27.30;99.90
7502;DHT22;3792;47.740;7.606;2022-10-16T12:29:56;27.20;99.50
7502;DHT22;3792;47.740;7.606;2022-10-16T12:32:28;27.10;99.30
7502;DHT22;3792;47.740;7.606;2022-10-16T12:34:56;27.00;99.30
7502;DHT22;3792;47.740;7.606;2022-10-16T12:37:26;27.20;99.10
7502;DHT22;3792;47.740;7.606;2022-10-16T12:39:55;27.40;99.20
7502;DHT22;3792;47.740;7.606;2022-10-16T12:42:32;27.50;99.90
7502;DHT22;3792;47.740;7.606;2022-10-16T12:45:00;27.50;98.00
7502;DHT22;3792;47.740;7.606;2022-10-16T12:47:47;27.60;98.00
7502;DHT22;3792;47.740;7.606;2022-10-16T12:50:27;27.60;98.20
7502;DHT22;3792;47.740;7.606;2022-10-16T12:52:54;27.50;97.90
7502;DHT22;3792;47.740;7.606;2022-10-16T12:55:23;27.10;99.60
7502;DHT22;3792;47.740;7.606;2022-10-16T12:58:07;27.30;99.90
7502;DHT22;3792;47.740;7.606;2022-10-16T13:00:42;27.50;97.70
7502;DHT22;3792;47.740;7.606;2022-10-16T13:03:52;27.50;96.80
7502;DHT22;3792;47.740;7.606;2022-10-16T13:06:32;27.60;96.70
7502;DHT22;3792;47.740;7.606;2022-10-16T13:09:24;27.40;96.80
7502;DHT22;3792;47.740;7.606;2022-10-16T13:12:07;27.40;96.50
7502;DHT22;3792;47.740;7.606;2022-10-16T13:17:35;27.70;97.30
7502;DHT22;3792;47.740;7.606;2022-10-16T13:20:16;27.90;97.00
7502;DHT22;3792;47.740;7.606;2022-10-16T13:22:51;28.00;97.10
7502;DHT22;3792;47.740;7.606;2022-10-16T13:25:32;28.00;96.10
7502;DHT22;3792;47.740;7.606;2022-10-16T13:28:02;28.00;95.70
7502;DHT22;3792;47.740;7.606;2022-10-16T13:30:31;28.20;95.60
7502;DHT22;3792;47.740;7.606;2022-10-16T13:33:06;28.20;95.60
7502;DHT22;3792;47.740;7.606;2022-10-16T13:35:36;27.70;96.30
7502;DHT22;3792;47.740;7.606;2022-10-16T13:38:05;27.70;96.40
7502;DHT22;3792;47.740;7.606;2022-10-16T13:40:32;27.50;96.40
7502;DHT22;3792;47.740;7.606;2022-10-16T13:43:01;27.30;96.40
7502;DHT22;3792;47.740;7.606;2022-10-16T13:45:29;27.30;97.00
7502;DHT22;3792;47.740;7.606;2022-10-16T13:48:03;27.50;97.20
7502;DHT22;3792;47.740;7.606;2022-10-16T13:50:30;27.80;96.50
7502;DHT22;3792;47.740;7.606;2022-10-16T13:53:05;27.80;96.30
7502;DHT22;3792;47.740;7.606;2022-10-16T13:55:33;27.90;95.70
7502;DHT22;3792;47.740;7.606;2022-10-16T13:58:13;27.80;95.90
7502;DHT22;3792;47.740;7.606;2022-10-16T14:00:52;27.60;96.20
7502;DHT22;3792;47.740;7.606;2022-10-16T14:03:20;27.40;96.50
7502;DHT22;3792;47.740;7.606;2022-10-16T14:05:51;27.30;95.90
7502;DHT22;3792;47.740;7.606;2022-10-16T14:08:18;27.00;95.80
7502;DHT22;3792;47.740;7.606;2022-10-16T14:10:48;26.90;96.40
7502;DHT22;3792;47.740;7.606;2022-10-16T14:13:19;26.90;96.60
7502;DHT22;3792;47.740;7.606;2022-10-16T14:15:49;27.00;96.70
7502;DHT22;3792;47.740;7.606;2022-10-16T14:18:19;27.10;96.40
7502;DHT22;3792;47.740;7.606;2022-10-16T14:20:48;27.30;96.10
7502;DHT22;3792;47.740;7.606;2022-10-16T14:23:23;27.30;96.40
7502;DHT22;3792;47.740;7.606;2022-10-16T14:26:06;27.30;96.40
7502;DHT22;3792;47.740;7.606;2022-10-16T14:28:44;27.30;96.00
7502;DHT22;3792;47.740;7.606;2022-10-16T14:31:29;27.50;96.40
7502;DHT22;3792;47.740;7.606;2022-10-16T14:33:56;27.90;96.30
7502;DHT22;3792;47.740;7.606;2022-10-16T14:36:24;28.20;95.70
7502;DHT22;3792;47.740;7.606;2022-10-16T14:38:59;28.30;95.50
7502;DHT22;3792;47.740;7.606;2022-10-16T14:41:28;28.50;95.00
7502;DHT22;3792;47.740;7.606;2022-10-16T14:44:01;28.60;94.80
7502;DHT22;3792;47.740;7.606;2022-10-16T14:46:33;28.30;93.90
7502;DHT22;3792;47.740;7.606;2022-10-16T14:49:04;28.20;94.10
7502;DHT22;3792;47.740;7.606;2022-10-16T14:51:41;28.20;94.80
7502;DHT22;3792;47.740;7.606;2022-10-16T14:54:10;28.20;95.90
7502;DHT22;3792;47.740;7.606;2022-10-16T14:56:45;28.40;95.90
7502;DHT22;3792;47.740;7.606;2022-10-16T14:59:17;28.50;95.40
7502;DHT22;3792;47.740;7.606;2022-10-16T15:01:44;28.40;95.40
7502;DHT22;3792;47.740;7.606;2022-10-16T15:04:13;28.20;95.40
7502;DHT22;3792;47.740;7.606;2022-10-16T15:06:42;27.90;96.20
7502;DHT22;3792;47.740;7.606;2022-10-16T15:09:09;27.50;98.00
7502;DHT22;3792;47.740;7.606;2022-10-16T15:11:37;27.50;98.00
7502;DHT22;3792;47.740;7.606;2022-10-16T15:14:04;27.40;97.50
7502;DHT22;3792;47.740;7.606;2022-10-16T15:16:33;27.20;97.70
7502;DHT22;3792;47.740;7.606;2022-10-16T15:19:00;26.90;98.00
7502;DHT22;3792;47.740;7.606;2022-10-16T15:21:29;26.60;98.20
7502;DHT22;3792;47.740;7.606;2022-10-16T15:23:57;26.50;98.60
7502;DHT22;3792;47.740;7.606;2022-10-16T15:26:25;26.50;98.80
7502;DHT22;3792;47.740;7.606;2022-10-16T15:28:53;26.60;98.80
7502;DHT22;3792;47.740;7.606;2022-10-16T15:31:21;26.70;98.90
7502;DHT22;3792;47.740;7.606;2022-10-16T15:33:51;26.70;98.70
7502;DHT22;3792;47.740;7.606;2022-10-16T15:36:25;26.50;99.10
7502;DHT22;3792;47.740;7.606;2022-10-16T15:38:53;26.20;99.30
7502;DHT22;3792;47.740;7.606;2022-10-16T15:41:20;26.00;99.60
7502;DHT22;3792;47.740;7.606;2022-10-16T15:43:48;25.70;99.90
7502;DHT22;3792;47.740;7.606;2022-10-16T15:46:19;25.70;99.90
7502;DHT22;3792;47.740;7.606;2022-10-16T15:48:47;25.50;99.90
7502;DHT22;3792;47.740;7.606;2022-10-16T15:51:16;25.20;99.90
7502;DHT22;3792;47.740;7.606;2022-10-16T15:53:44;24.90;99.90
7502;DHT22;3792;47.740;7.606;2022-10-16T15:56:12;24.60;99.90
7502;DHT22;3792;47.740;7.606;2022-10-16T15:58:40;24.50;99.90
7502;DHT22;3792;47.740;7.606;2022-10-16T16:01:07;24.30;99.90
7502;DHT22;3792;47.740;7.606;2022-10-16T16:03:38;24.20;99.90
7502;DHT22;3792;47.740;7.606;2022-10-16T16:06:08;24.00;99.90
7502;DHT22;3792;47.740;7.606;2022-10-16T16:08:38;23.90;99.90
7502;DHT22;3792;47.740;7.606;2022-10-16T16:11:06;23.80;99.90
7502;DHT22;3792;47.740;7.606;2022-10-16T16:13:34;23.50;99.90
7502;DHT22;3792;47.740;7.606;2022-10-16T16:16:06;23.20;99.90
7502;DHT22;3792;47.740;7.606;2022-10-16T16:18:33;22.90;99.90
7502;DHT22;3792;47.740;7.606;2022-10-16T16:21:00;22.60;99.90
7502;DHT22;3792;47.740;7.606;2022-10-16T16:23:27;22.30;99.90
7502;DHT22;3792;47.740;7.606;2022-10-16T16:26:07;22.10;99.90
7502;DHT22;3792;47.740;7.606;2022-10-16T16:28:37;21.80;99.90
7502;DHT22;3792;47.740;7.606;2022-10-16T16:31:04;21.60;99.90